createdAt,value
2019-02-12T00:00:03.988Z,5.30
2019-02-12T00:02:30.734Z,5.37
2019-02-12T00:04:57.604Z,5.53
2019-02-12T00:07:24.389Z,6.10
2019-02-12T00:09:51.276Z,5.40
2019-02-12T00:12:18.232Z,5.67
2019-02-12T00:14:45.460Z,5.43
2019-02-12T00:17:12.361Z,5.27
2019-02-12T00:19:39.309Z,5.40
2019-02-12T00:22:06.889Z,5.50
2019-02-12T00:24:34.123Z,5.70
2019-02-12T00:27:00.876Z,6.27
2019-02-12T00:29:27.875Z,5.70
2019-02-12T00:31:57.241Z,6.07
2019-02-12T00:34:24.005Z,6.17
2019-02-12T00:36:51.004Z,5.13
2019-02-12T00:39:17.916Z,5.53
2019-02-12T00:41:44.792Z,5.53
2019-02-12T00:44:13.976Z,5.60
2019-02-12T00:46:41.346Z,4.77
2019-02-12T00:49:08.108Z,5.30
2019-02-12T00:51:35.210Z,5.60
2019-02-12T00:54:02.273Z,4.70
2019-02-12T00:56:32.104Z,4.37
2019-02-12T00:59:00.355Z,3.80
2019-02-12T01:01:27.691Z,3.77
2019-02-12T01:03:54.608Z,3.37
2019-02-12T01:06:21.691Z,4.03
2019-02-12T01:08:48.466Z,4.30
2019-02-12T01:11:15.251Z,3.83
2019-02-12T01:13:42.170Z,4.07
2019-02-12T01:16:09.008Z,4.93
2019-02-12T01:18:35.761Z,4.93
2019-02-12T01:21:02.578Z,4.80
2019-02-12T01:23:29.325Z,4.73
2019-02-12T01:25:56.593Z,5.60
2019-02-12T01:28:23.395Z,5.00
2019-02-12T01:30:50.317Z,5.60
2019-02-12T01:33:17.472Z,6.50
2019-02-12T01:35:44.231Z,7.27
2019-02-12T01:38:11.133Z,5.70
2019-02-12T01:40:37.892Z,5.50
2019-02-12T01:43:04.637Z,5.77
2019-02-12T01:45:31.515Z,5.30
2019-02-12T01:47:58.587Z,4.37
2019-02-12T01:50:25.352Z,5.40
2019-02-12T01:52:52.712Z,6.03
2019-02-12T01:55:20.133Z,6.53
2019-02-12T01:57:47.152Z,6.20
2019-02-12T02:00:13.953Z,5.07
2019-02-12T02:02:41.137Z,5.03
2019-02-12T02:05:08.054Z,5.47
2019-02-12T02:07:34.828Z,5.90
2019-02-12T02:10:01.586Z,6.30
2019-02-12T02:12:28.534Z,5.90
2019-02-12T02:14:57.896Z,6.83
2019-02-12T02:17:24.827Z,5.83
2019-02-12T02:19:51.799Z,5.53
2019-02-12T02:22:18.657Z,5.80
2019-02-12T02:24:45.574Z,6.03
2019-02-12T02:27:12.443Z,6.13
2019-02-12T02:29:39.479Z,6.57
2019-02-12T02:32:06.475Z,6.40
2019-02-12T02:34:33.529Z,6.10
2019-02-12T02:37:00.259Z,5.77
2019-02-12T02:39:27.102Z,6.20
2019-02-12T02:41:54.079Z,6.13
2019-02-12T02:44:20.787Z,5.97
2019-02-12T02:46:47.682Z,6.33
2019-02-12T02:49:14.410Z,6.03
2019-02-12T02:51:41.133Z,6.73
2019-02-12T02:54:07.985Z,6.60
2019-02-12T02:56:34.741Z,6.27
2019-02-12T02:59:01.576Z,7.07
2019-02-12T03:01:28.349Z,6.13
2019-02-12T03:03:55.150Z,5.00
2019-02-12T03:06:22.398Z,6.70
2019-02-12T03:08:49.246Z,5.90
2019-02-12T03:11:16.400Z,6.30
2019-02-12T03:13:43.354Z,6.87
2019-02-12T03:16:13.264Z,6.73
2019-02-12T03:18:40.231Z,6.57
2019-02-12T03:21:06.985Z,5.97
2019-02-12T03:23:33.983Z,6.03
2019-02-12T03:26:00.678Z,6.27
2019-02-12T03:28:28.277Z,6.27
2019-02-12T03:30:55.140Z,6.80
2019-02-12T03:33:21.886Z,6.77
2019-02-12T03:35:48.783Z,6.60
2019-02-12T03:38:15.536Z,6.73
2019-02-12T03:40:42.319Z,6.50
2019-02-12T03:43:09.050Z,6.87
2019-02-12T03:45:35.820Z,6.60
2019-02-12T03:48:02.715Z,7.30
2019-02-12T03:50:29.482Z,6.90
2019-02-12T03:52:56.230Z,6.83
2019-02-12T03:55:23.456Z,6.47
2019-02-12T03:57:50.700Z,6.70
2019-02-12T04:00:17.456Z,6.20
2019-02-12T04:03:00.430Z,6.03
2019-02-12T04:05:27.331Z,5.83
2019-02-12T04:07:54.096Z,6.90
2019-02-12T04:10:20.879Z,5.90
2019-02-12T04:12:49.822Z,6.23
2019-02-12T04:15:16.690Z,7.17
2019-02-12T04:17:43.772Z,7.10
2019-02-12T04:20:10.540Z,6.43
2019-02-12T04:22:37.445Z,5.63
2019-02-12T04:25:04.212Z,5.67
2019-02-12T04:27:30.985Z,6.23
2019-02-12T04:29:57.729Z,6.20
2019-02-12T04:32:24.477Z,5.77
2019-02-12T04:34:51.232Z,5.90
2019-02-12T04:37:18.074Z,5.30
2019-02-12T04:39:45.102Z,5.70
2019-02-12T04:42:11.964Z,5.20
2019-02-12T04:44:38.874Z,6.10
2019-02-12T04:47:05.604Z,5.40
2019-02-12T04:49:32.336Z,5.33
2019-02-12T04:51:59.079Z,5.23
2019-02-12T04:54:25.926Z,5.80
2019-02-12T04:56:52.671Z,6.00
2019-02-12T04:59:19.432Z,5.40
2019-02-12T05:01:46.311Z,5.40
2019-02-12T05:04:13.175Z,5.50
2019-02-12T05:06:40.171Z,5.63
2019-02-12T05:09:20.505Z,5.63
2019-02-12T05:11:58.956Z,6.27
2019-02-12T05:14:25.835Z,5.90
2019-02-12T05:16:52.619Z,5.47
2019-02-12T05:19:22.392Z,6.03
2019-02-12T05:21:49.218Z,5.77
2019-02-12T05:24:15.976Z,5.93
2019-02-12T05:26:42.741Z,5.50
2019-02-12T05:29:09.484Z,5.83
2019-02-12T05:31:36.334Z,6.13
2019-02-12T05:34:04.971Z,5.30
2019-02-12T05:36:31.905Z,6.47
2019-02-12T05:39:00.671Z,5.83
2019-02-12T05:41:27.464Z,6.43
2019-02-12T05:43:54.229Z,5.70
2019-02-12T05:46:20.997Z,5.93
2019-02-12T05:48:47.958Z,6.60
2019-02-12T05:51:14.832Z,6.10
2019-02-12T05:53:44.563Z,7.70
2019-02-12T05:56:11.409Z,6.53
2019-02-12T05:58:38.148Z,6.60
2019-02-12T06:01:04.928Z,7.20
2019-02-12T06:03:31.801Z,6.70
2019-02-12T06:05:59.023Z,6.90
2019-02-12T06:08:26.552Z,6.70
2019-02-12T06:10:53.390Z,7.80
2019-02-12T06:13:20.309Z,6.40
2019-02-12T06:15:47.176Z,6.73
2019-02-12T06:18:14.021Z,7.20
2019-02-12T06:20:40.814Z,7.00
2019-02-12T06:23:07.696Z,8.60
2019-02-12T06:25:37.726Z,12.33
2019-02-12T06:28:04.649Z,6.23
2019-02-12T06:30:31.423Z,5.80
2019-02-12T06:33:06.938Z,5.30
2019-02-12T06:35:27.284Z,5.37
2019-02-12T06:37:54.227Z,5.97
2019-02-12T06:40:20.963Z,5.73
2019-02-12T06:42:50.780Z,5.33
2019-02-12T06:45:17.560Z,6.10
2019-02-12T06:47:44.307Z,6.43
2019-02-12T06:50:11.215Z,7.93
2019-02-12T06:52:37.934Z,7.07
2019-02-12T06:55:06.023Z,5.97
2019-02-12T06:57:32.769Z,6.00
2019-02-12T06:59:59.596Z,8.07
2019-02-12T07:03:22.614Z,7.40
2019-02-12T07:06:03.442Z,7.83
2019-02-12T07:09:03.924Z,7.87
2019-02-12T07:11:58.103Z,7.63
2019-02-12T07:14:30.273Z,7.83
2019-02-12T07:17:35.313Z,7.37
2019-02-12T07:20:18.061Z,7.10
2019-02-12T07:23:09.226Z,7.03
2019-02-12T07:25:56.282Z,6.50
2019-02-12T07:28:57.087Z,7.00
2019-02-12T07:32:20.199Z,6.43
2019-02-12T07:35:30.208Z,6.40
2019-02-12T07:38:20.916Z,5.90
2019-02-12T07:41:45.249Z,6.30
2019-02-12T07:44:51.261Z,5.87
2019-02-12T07:47:40.615Z,5.43
2019-02-12T07:50:33.770Z,5.80
2019-02-12T07:53:15.345Z,5.57
2019-02-12T07:56:42.563Z,5.40
2019-02-12T07:59:43.739Z,6.47
2019-02-12T08:02:55.559Z,4.70
2019-02-12T08:05:51.911Z,6.20
2019-02-12T08:08:55.014Z,5.43
2019-02-12T08:11:40.035Z,6.20
2019-02-12T08:14:25.335Z,5.40
2019-02-12T08:17:32.737Z,5.10
2019-02-12T08:20:53.746Z,5.83
2019-02-12T08:23:47.309Z,6.17
2019-02-12T08:26:39.529Z,5.70
2019-02-12T08:29:34.949Z,5.80
2019-02-12T08:32:31.666Z,6.23
2019-02-12T08:35:25.471Z,5.80
2019-02-12T08:38:50.019Z,6.27
2019-02-12T08:41:44.046Z,6.03
2019-02-12T08:44:50.193Z,5.90
2019-02-12T08:47:49.625Z,6.30
2019-02-12T08:50:37.153Z,6.50
2019-02-12T08:53:38.187Z,5.80
2019-02-12T08:56:27.511Z,6.20
2019-02-12T08:59:29.863Z,6.07
2019-02-12T09:02:37.322Z,6.00
2019-02-12T09:05:28.587Z,6.10
2019-02-12T09:08:02.416Z,5.50
2019-02-12T09:11:13.588Z,6.53
2019-02-12T09:14:10.634Z,5.10
2019-02-12T09:17:22.679Z,5.23
2019-02-12T09:20:49.689Z,7.10
2019-02-12T09:23:35.648Z,6.63
2019-02-12T09:26:29.534Z,4.70
2019-02-12T09:29:14.340Z,4.70
2019-02-12T09:32:32.294Z,5.20
2019-02-12T09:35:27.593Z,4.87
2019-02-12T09:38:04.775Z,4.37
2019-02-12T09:41:07.821Z,4.17
2019-02-12T09:44:13.016Z,4.80
2019-02-12T09:47:22.220Z,5.10
2019-02-12T09:50:33.481Z,3.87
2019-02-12T09:53:16.556Z,4.60
2019-02-12T09:56:25.169Z,4.77
2019-02-12T09:59:10.282Z,4.60
2019-02-12T10:01:58.870Z,3.70
2019-02-12T10:04:55.188Z,3.17
2019-02-12T10:07:56.405Z,3.27
2019-02-12T10:10:39.770Z,3.50
2019-02-12T10:13:30.626Z,3.60
2019-02-12T10:16:44.680Z,3.40
2019-02-12T10:19:34.138Z,3.90
2019-02-12T10:22:30.617Z,3.97
2019-02-12T10:25:37.011Z,4.00
2019-02-12T10:28:57.063Z,3.30
2019-02-12T10:31:27.230Z,3.10
2019-02-12T10:33:54.074Z,2.37
2019-02-12T10:36:21.100Z,2.37
2019-02-12T10:38:51.353Z,2.80
2019-02-12T10:41:18.198Z,2.63
2019-02-12T10:43:45.054Z,2.40
2019-02-12T10:46:11.854Z,3.10
2019-02-12T10:48:41.414Z,3.60
2019-02-12T10:51:08.313Z,3.53
2019-02-12T10:53:35.017Z,4.10
2019-02-12T10:56:02.312Z,3.73
2019-02-12T10:58:29.524Z,3.30
2019-02-12T11:00:56.408Z,3.50
2019-02-12T11:03:23.494Z,3.50
2019-02-12T11:05:52.466Z,3.33
2019-02-12T11:08:19.728Z,3.13
2019-02-12T11:10:48.816Z,3.10
2019-02-12T11:13:16.040Z,3.07
2019-02-12T11:15:43.211Z,3.53
2019-02-12T11:18:12.496Z,2.40
2019-02-12T11:20:39.643Z,3.20
2019-02-12T11:23:06.833Z,3.60
2019-02-12T11:25:33.900Z,3.50
2019-02-12T11:28:05.808Z,3.60
2019-02-12T11:30:32.688Z,2.83
2019-02-12T11:32:59.752Z,2.67
2019-02-12T11:35:26.667Z,3.03
2019-02-12T11:37:53.956Z,3.23
2019-02-12T11:40:25.798Z,3.27
2019-02-12T11:42:52.736Z,3.10
2019-02-12T11:45:19.759Z,3.10
2019-02-12T11:47:52.244Z,3.50
2019-02-12T11:50:18.994Z,3.33
2019-02-12T11:52:45.858Z,3.20
2019-02-12T11:55:12.627Z,3.40
2019-02-12T11:57:40.106Z,2.90
2019-02-12T12:00:10.160Z,2.80
2019-02-12T12:02:42.052Z,3.27
2019-02-12T12:05:07.728Z,2.73
2019-02-12T12:07:34.488Z,2.00
2019-02-12T12:10:02.647Z,2.20
2019-02-12T12:12:29.772Z,2.33
2019-02-12T12:14:56.951Z,2.47
2019-02-12T12:17:23.812Z,2.63
2019-02-12T12:19:51.084Z,2.17
2019-02-12T12:22:18.666Z,2.73
2019-02-12T12:24:51.400Z,2.30
2019-02-12T12:27:16.655Z,2.07
2019-02-12T12:29:43.618Z,2.10
2019-02-12T12:32:10.888Z,2.43
2019-02-12T12:34:38.080Z,2.27
2019-02-12T12:37:04.934Z,2.80
2019-02-12T12:39:31.830Z,2.20
2019-02-12T12:41:58.828Z,2.43
2019-02-12T12:44:25.589Z,2.00
2019-02-12T12:46:52.343Z,1.90
2019-02-12T12:49:22.051Z,1.60
2019-02-12T12:51:48.824Z,3.20
2019-02-12T12:54:15.704Z,2.40
2019-02-12T12:56:43.129Z,1.97
2019-02-12T12:59:10.060Z,1.60
2019-02-12T13:01:37.433Z,1.93
2019-02-12T13:04:04.671Z,2.07
2019-02-12T13:06:31.482Z,1.97
2019-02-12T13:08:58.582Z,2.10
2019-02-12T13:11:26.655Z,2.30
2019-02-12T13:13:54.128Z,2.03
2019-02-12T13:16:20.861Z,1.90
2019-02-12T13:18:48.593Z,2.13
2019-02-12T13:21:15.602Z,2.07
2019-02-12T13:23:43.208Z,1.77
2019-02-12T13:26:09.975Z,1.53
2019-02-12T13:28:36.723Z,2.20
2019-02-12T13:31:05.375Z,1.50
2019-02-12T13:33:32.308Z,1.60
2019-02-12T13:36:01.031Z,2.20
2019-02-12T13:38:28.388Z,2.07
2019-02-12T13:40:56.211Z,2.40
2019-02-12T13:43:23.196Z,2.67
2019-02-12T13:45:50.164Z,1.80
2019-02-12T13:48:17.193Z,2.50
2019-02-12T13:50:43.929Z,2.17
2019-02-12T13:53:10.862Z,1.77
2019-02-12T13:55:37.837Z,1.77
2019-02-12T13:58:06.288Z,2.10
2019-02-12T14:00:33.204Z,2.00
2019-02-12T14:02:59.965Z,2.27
2019-02-12T14:05:26.853Z,2.37
2019-02-12T14:07:53.902Z,2.40
2019-02-12T14:10:21.037Z,2.30
2019-02-12T14:12:47.989Z,2.73
2019-02-12T14:15:15.019Z,2.57
2019-02-12T14:17:42.329Z,2.17
2019-02-12T14:20:11.047Z,1.90
2019-02-12T14:22:37.868Z,1.87
2019-02-12T14:25:05.033Z,2.60
2019-02-12T14:27:32.238Z,2.40
2019-02-12T14:29:59.447Z,1.73
2019-02-12T14:32:26.255Z,1.87
2019-02-12T14:34:53.441Z,2.50
2019-02-12T14:37:20.339Z,2.43
2019-02-12T14:39:47.130Z,2.40
2019-02-12T14:42:14.047Z,2.20
2019-02-12T14:44:41.015Z,2.03
2019-02-12T14:47:07.899Z,2.00
2019-02-12T14:49:35.479Z,2.57
2019-02-12T14:52:03.263Z,2.20
2019-02-12T14:54:30.036Z,2.53
2019-02-12T14:56:57.665Z,2.40
2019-02-12T14:59:24.890Z,2.80
2019-02-12T15:01:51.639Z,2.60
2019-02-12T15:04:18.562Z,3.00
2019-02-12T15:06:46.018Z,2.23
2019-02-12T15:09:14.530Z,2.43
2019-02-12T15:11:41.321Z,2.80
2019-02-12T15:14:10.643Z,3.20
2019-02-12T15:16:37.499Z,3.07
2019-02-12T15:19:05.058Z,2.87
2019-02-12T15:21:31.891Z,3.00
2019-02-12T15:24:04.613Z,2.90
2019-02-12T15:26:31.392Z,3.00
2019-02-12T15:28:58.198Z,2.70
2019-02-12T15:31:25.742Z,2.03
2019-02-12T15:33:54.168Z,2.47
2019-02-12T15:36:20.996Z,2.47
2019-02-12T15:38:48.557Z,2.50
2019-02-12T15:41:19.307Z,2.43
2019-02-12T15:43:46.141Z,3.37
2019-02-12T15:46:13.411Z,2.43
2019-02-12T15:48:40.463Z,2.70
2019-02-12T15:51:07.353Z,2.87
2019-02-12T15:53:34.098Z,2.90
2019-02-12T15:56:09.877Z,2.90
2019-02-12T15:58:36.733Z,2.90
2019-02-12T16:01:04.369Z,2.80
2019-02-12T16:03:34.014Z,3.37
2019-02-12T16:06:00.937Z,3.37
2019-02-12T16:08:29.661Z,3.60
2019-02-12T16:10:57.512Z,4.67
2019-02-12T16:13:25.627Z,5.07
2019-02-12T16:15:52.395Z,5.60
2019-02-12T16:18:21.367Z,6.40
2019-02-12T16:20:47.830Z,6.43
2019-02-12T16:23:14.676Z,6.80
2019-02-12T16:25:42.023Z,5.93
2019-02-12T16:28:08.926Z,5.60
2019-02-12T16:30:35.787Z,5.70
2019-02-12T16:33:05.348Z,6.33
2019-02-12T16:35:32.298Z,6.10
2019-02-12T16:38:02.014Z,6.57
2019-02-12T16:40:29.208Z,5.60
2019-02-12T16:42:56.067Z,5.13
2019-02-12T16:45:33.793Z,5.67
2019-02-12T16:48:00.632Z,5.87
2019-02-12T16:50:27.776Z,5.57
2019-02-12T16:52:54.593Z,5.67
2019-02-12T16:55:21.749Z,5.53
2019-02-12T16:57:48.981Z,5.47
2019-02-12T17:00:16.184Z,5.30
2019-02-12T17:02:43.381Z,4.77
2019-02-12T17:05:10.855Z,5.03
2019-02-12T17:07:37.914Z,5.70
2019-02-12T17:10:09.659Z,6.13
2019-02-12T17:12:36.525Z,5.27
2019-02-12T17:15:03.782Z,6.30
2019-02-12T17:17:30.489Z,7.43
2019-02-12T17:19:59.989Z,7.43
2019-02-12T17:22:27.165Z,7.53
2019-02-12T17:24:54.448Z,6.43
2019-02-12T17:27:21.621Z,7.07
2019-02-12T17:29:48.531Z,8.00
2019-02-12T17:32:15.928Z,8.60
2019-02-12T17:34:42.794Z,8.57
2019-02-12T17:37:09.528Z,7.80
2019-02-12T17:39:36.321Z,7.97
2019-02-12T17:42:03.473Z,8.60
2019-02-12T17:44:30.355Z,7.93
2019-02-12T17:46:57.141Z,7.97
2019-02-12T17:49:23.944Z,8.30
2019-02-12T17:51:53.937Z,7.70
2019-02-12T17:54:20.797Z,8.03
2019-02-12T17:56:47.632Z,8.13
2019-02-12T17:59:17.034Z,7.13
2019-02-12T18:01:43.881Z,7.40
2019-02-12T18:04:10.855Z,7.80
2019-02-12T18:06:37.722Z,7.07
2019-02-12T18:09:06.163Z,7.10
2019-02-12T18:11:33.310Z,7.07
2019-02-12T18:14:00.559Z,8.47
2019-02-12T18:16:27.736Z,8.70
2019-02-12T18:18:54.630Z,8.80
2019-02-12T18:21:21.325Z,8.73
2019-02-12T18:23:48.346Z,8.67
2019-02-12T18:26:15.382Z,9.00
2019-02-12T18:28:42.516Z,9.07
2019-02-12T18:31:11.186Z,8.67
2019-02-12T18:33:37.933Z,9.30
2019-02-12T18:36:04.684Z,9.07
2019-02-12T18:38:31.435Z,8.53
2019-02-12T18:40:58.173Z,9.17
2019-02-12T18:43:26.254Z,8.77
2019-02-12T18:45:53.530Z,8.40
2019-02-12T18:48:20.746Z,8.47
2019-02-12T18:50:47.478Z,8.93
2019-02-12T18:53:14.574Z,9.50
2019-02-12T18:55:43.736Z,8.80
2019-02-12T18:58:10.458Z,9.67
2019-02-12T19:00:37.251Z,10.40
2019-02-12T19:03:06.590Z,10.73
2019-02-12T19:05:33.684Z,9.90
2019-02-12T19:08:00.535Z,10.90
2019-02-12T19:10:27.284Z,9.33
2019-02-12T19:12:54.360Z,9.60
2019-02-12T19:15:21.115Z,10.10
2019-02-12T19:17:57.708Z,8.77
2019-02-12T19:20:24.453Z,8.50
2019-02-12T19:22:51.178Z,8.00
2019-02-12T19:25:18.147Z,8.90
2019-02-12T19:27:45.108Z,8.63
2019-02-12T19:30:12.844Z,8.27
2019-02-12T19:32:40.912Z,8.50
2019-02-12T19:35:08.384Z,8.40
2019-02-12T19:37:35.224Z,8.87
2019-02-12T19:40:02.073Z,8.33
2019-02-12T19:42:28.774Z,9.50
2019-02-12T19:44:55.657Z,9.60
2019-02-12T19:47:22.395Z,8.13
2019-02-12T19:49:49.142Z,8.63
2019-02-12T19:52:15.889Z,9.07
2019-02-12T19:54:42.632Z,8.57
2019-02-12T19:57:10.639Z,8.63
2019-02-12T19:59:37.888Z,8.13
2019-02-12T20:02:04.615Z,7.90
2019-02-12T20:04:31.500Z,9.20
2019-02-12T20:06:58.244Z,8.70
2019-02-12T20:09:25.217Z,8.00
2019-02-12T20:11:51.968Z,7.43
2019-02-12T20:14:18.716Z,7.70
2019-02-12T20:16:45.678Z,7.80
2019-02-12T20:19:12.411Z,7.50
2019-02-12T20:21:40.976Z,7.50
2019-02-12T20:24:07.669Z,7.40
2019-02-12T20:26:34.554Z,7.40
2019-02-12T20:29:01.328Z,6.93
2019-02-12T20:31:28.421Z,7.47
2019-02-12T20:33:57.178Z,7.40
2019-02-12T20:36:26.990Z,7.70
2019-02-12T20:38:53.878Z,6.97
2019-02-12T20:41:20.897Z,8.80
2019-02-12T20:43:47.657Z,8.50
2019-02-12T20:46:14.449Z,8.20
2019-02-12T20:48:41.197Z,9.40
2019-02-12T20:51:07.944Z,8.63
2019-02-12T20:53:37.045Z,7.93
2019-02-12T20:56:03.868Z,7.40
2019-02-12T20:58:34.088Z,6.80
2019-02-12T21:01:01.361Z,6.80
2019-02-12T21:03:28.080Z,6.90
2019-02-12T21:05:54.912Z,6.20
2019-02-12T21:08:21.707Z,5.93
2019-02-12T21:10:48.683Z,7.20
2019-02-12T21:13:16.203Z,7.40
2019-02-12T21:15:43.014Z,7.27
2019-02-12T21:18:09.715Z,7.20
2019-02-12T21:20:39.529Z,7.73
2019-02-12T21:23:06.754Z,7.30
2019-02-12T21:25:34.111Z,7.80
2019-02-12T21:28:00.878Z,6.83
2019-02-12T21:30:30.339Z,6.27
2019-02-12T21:32:59.763Z,6.40
2019-02-12T21:35:27.077Z,6.77
2019-02-12T21:37:54.610Z,6.47
2019-02-12T21:40:21.515Z,6.50
2019-02-12T21:42:51.032Z,6.30
2019-02-12T21:45:22.808Z,6.93
2019-02-12T21:47:50.906Z,6.87
2019-02-12T21:50:18.085Z,6.63
2019-02-12T21:52:45.308Z,7.17
2019-02-12T21:55:12.487Z,7.70
2019-02-12T21:57:39.408Z,7.70
2019-02-12T22:00:11.081Z,7.00
2019-02-12T22:02:37.978Z,7.40
2019-02-12T22:05:06.469Z,6.10
2019-02-12T22:07:33.239Z,6.10
2019-02-12T22:10:00.214Z,6.60
2019-02-12T22:12:27.080Z,6.63
2019-02-12T22:14:54.113Z,6.87
2019-02-12T22:17:20.837Z,7.50
2019-02-12T22:19:47.856Z,6.63
2019-02-12T22:22:16.849Z,7.00
2019-02-12T22:24:43.758Z,6.90
2019-02-12T22:27:10.509Z,7.10
2019-02-12T22:29:37.323Z,6.90
2019-02-12T22:32:04.123Z,6.30
2019-02-12T22:34:33.806Z,6.70
2019-02-12T22:37:00.559Z,6.10
2019-02-12T22:39:27.646Z,6.27
2019-02-12T22:41:54.895Z,7.33
2019-02-12T22:44:22.250Z,5.90
2019-02-12T22:46:49.166Z,6.53
2019-02-12T22:49:16.140Z,6.40
2019-02-12T22:51:43.429Z,7.10
2019-02-12T22:54:10.215Z,6.97
2019-02-12T22:56:37.699Z,5.90
2019-02-12T22:59:04.791Z,6.50
2019-02-12T23:01:36.494Z,6.20
2019-02-12T23:04:03.775Z,6.40
2019-02-12T23:06:30.752Z,6.67
2019-02-12T23:08:57.628Z,6.60
2019-02-12T23:11:24.378Z,6.97
2019-02-12T23:13:51.243Z,7.10
2019-02-12T23:16:18.129Z,5.83
2019-02-12T23:18:44.855Z,6.97
2019-02-12T23:21:11.617Z,6.60
2019-02-12T23:23:38.363Z,7.20
2019-02-12T23:26:05.079Z,6.80
2019-02-12T23:28:31.832Z,6.07
2019-02-12T23:30:58.589Z,6.60
2019-02-12T23:33:25.602Z,6.80
2019-02-12T23:35:52.516Z,6.60
2019-02-12T23:38:19.313Z,6.73
2019-02-12T23:40:51.359Z,6.80
2019-02-12T23:43:18.709Z,6.60
2019-02-12T23:45:45.576Z,6.43
2019-02-12T23:48:12.284Z,5.50
2019-02-12T23:50:39.167Z,6.00
2019-02-12T23:53:06.028Z,6.00
2019-02-12T23:55:32.767Z,6.00
2019-02-12T23:58:05.802Z,6.50
